Whenuapai (NZWP)

Aerodrome — Elev 100
New Zealand
S036.47.16.001 E174.37.49.001
Loading chart...

Current Weather

NZWP 251830Z 33002KT 9999 FEW027 17/15 Q1026 NOSIG RMK AUTO NZAA VATSIM USE ONLY

Published 21 minutes ago

Airport Activity

Loading chart...
Loading chart...

Standard ATC Positions

CallsignRadio Name / Freq / Voice Room / TypeFrequencyVoice RoomType
NZCH-R_CTR Auckland Control
126.000
nzch-r_ctr
126.000nzch-r_ctr
NZAA_APP Auckland Approach
124.300
nzaa_app
124.300nzaa_app
NZAA_DEP Auckland Approach
118.000
nzaa_dep
118.000nzaa_dep
NZWP_TWR Whenuapai Tower
134.500
nzwp_twr
134.500nzwp_twr
NZWP_ATIS Whenuapai ATIS
128.300
nzwp_atis
128.300nzwp_atis
UNICOM NZZC UNICOM
122.800
unicom_nzzc
122.800unicom_nzzc

Event ATC Positions

This airport has additional control positions that are designated for use only during major events.
These non-standard positions must not be staffed unless specifically activated by the VATNZ Airspace Director as part of an official VATNZ event.
At all other times, controllers should use the designated Standard ATC Positions.

CallsignRadio Name / Freq / Voice Room / TypeFrequencyVoice RoomType
NZAA_CTR Auckland Control
123.900
nzaa_ctr
123.900nzaa_ctr

Charts